Time;durP1;ratioP1;P1;durP2;ratioP2;P2;SDS_P1;SDS_P2;PMS_P1;PMS_P2;Temp;Humidity;BMP_temperature;BMP_pressure;BME280_temperature;BME280_humidity;BME280_pressure;Samples;Min_cycle;Max_cycle;Signal;HPM_P1;HPM_P2
2022/01/11 00:00:57;;;;;;;2.50;1.53;;;7.50;50.00;;;;;;5074038;28;20024;-70
2022/01/11 00:03:23;;;;;;;2.83;1.70;;;7.50;50.20;;;;;;5074041;28;20373;-70
2022/01/11 00:08:17;;;;;;;2.33;1.57;;;7.40;49.70;;;;;;5074315;28;20154;-70
2022/01/11 00:10:52;;;;;;;2.37;1.60;;;7.50;49.40;;;;;;5072923;28;20119;-70
2022/01/11 00:13:19;;;;;;;2.67;1.43;;;7.50;50.10;;;;;;5073565;28;20012;-70
2022/01/11 00:15:46;;;;;;;2.87;1.70;;;7.40;50.10;;;;;;5073710;28;20381;-70
2022/01/11 00:18:13;;;;;;;3.53;2.00;;;7.40;50.20;;;;;;5073696;28;20024;-70
2022/01/11 00:20:39;;;;;;;2.20;1.53;;;7.40;50.40;;;;;;5073562;28;20435;-70
2022/01/11 00:25:36;;;;;;;2.00;1.20;;;7.40;50.20;;;;;;5073401;28;20029;-70
2022/01/11 00:28:02;;;;;;;2.17;1.30;;;7.40;50.00;;;;;;5073511;28;20051;-70
2022/01/11 00:30:32;;;;;;;2.07;1.47;;;7.40;49.50;;;;;;5073365;28;20413;-70
2022/01/11 00:33:00;;;;;;;3.47;1.37;;;7.40;49.40;;;;;;5073442;28;20066;-70
2022/01/11 00:35:39;;;;;;;2.90;1.50;;;7.40;49.20;;;;;;5073376;28;20047;-69
2022/01/11 00:38:06;;;;;;;2.10;1.23;;;7.40;49.50;;;;;;5073572;28;20397;-70
2022/01/11 00:40:32;;;;;;;2.27;1.20;;;7.40;49.70;;;;;;5073157;28;20028;-70
2022/01/11 00:42:59;;;;;;;2.50;1.63;;;7.40;49.50;;;;;;5073280;28;20016;-70
2022/01/11 00:45:26;;;;;;;2.27;1.67;;;7.40;50.10;;;;;;5073072;28;20021;-70
2022/01/11 00:47:53;;;;;;;3.10;2.00;;;7.40;50.20;;;;;;5073192;28;20025;-70
2022/01/11 00:50:19;;;;;;;2.70;1.60;;;7.40;50.40;;;;;;5073199;28;20139;-70
2022/01/11 00:52:45;;;;;;;2.63;1.60;;;7.40;50.90;;;;;;5073102;28;20401;-70
2022/01/11 00:55:11;;;;;;;3.33;2.20;;;7.40;50.50;;;;;;5072838;28;20025;-70
2022/01/11 00:57:36;;;;;;;4.50;2.30;;;7.30;51.10;;;;;;5073305;28;20465;-70
2022/01/11 01:00:08;;;;;;;3.03;2.10;;;7.20;51.40;;;;;;5073280;28;20021;-71
2022/01/11 01:02:34;;;;;;;3.40;1.93;;;7.20;51.20;;;;;;5073028;28;20023;-70
2022/01/11 01:05:01;;;;;;;2.40;1.40;;;7.20;51.50;;;;;;5072844;28;20056;-70
2022/01/11 01:07:27;;;;;;;3.40;1.77;;;7.20;50.50;;;;;;5072937;28;20035;-70
2022/01/11 01:10:01;;;;;;;2.93;1.50;;;7.20;49.90;;;;;;5073023;28;20036;-70
2022/01/11 01:12:27;;;;;;;4.10;1.60;;;7.20;49.60;;;;;;5073202;28;20104;-71
2022/01/11 01:14:53;;;;;;;12.67;2.67;;;7.20;50.00;;;;;;5072931;28;20051;-70
2022/01/11 01:17:19;;;;;;;5.90;1.83;;;7.20;50.80;;;;;;5072803;28;20473;-71
2022/01/11 01:19:44;;;;;;;3.07;1.60;;;7.20;51.10;;;;;;5073241;28;20051;-71
2022/01/11 01:22:10;;;;;;;2.17;1.30;;;7.20;50.10;;;;;;5072642;28;20087;-71
2022/01/11 01:24:36;;;;;;;2.33;1.30;;;7.20;49.10;;;;;;5072920;28;20031;-71
2022/01/11 01:27:02;;;;;;;2.40;1.23;;;7.20;48.80;;;;;;5073101;28;20042;-70
2022/01/11 01:29:28;;;;;;;2.30;1.60;;;7.30;49.30;;;;;;5072811;28;20041;-71
2022/01/11 01:31:55;;;;;;;2.73;2.00;;;7.30;49.40;;;;;;5072768;28;20166;-71
2022/01/11 01:34:21;;;;;;;3.30;1.90;;;7.30;50.10;;;;;;5072827;28;20150;-71
2022/01/11 01:36:47;;;;;;;3.23;2.00;;;7.30;50.30;;;;;;5072874;28;20069;-71
2022/01/11 01:39:13;;;;;;;2.93;1.73;;;7.20;51.00;;;;;;5072772;28;20474;-71
2022/01/11 01:41:43;;;;;;;2.53;1.80;;;7.20;51.20;;;;;;5072577;28;20021;-71
2022/01/11 01:44:09;;;;;;;3.13;2.03;;;7.10;51.70;;;;;;5072696;28;20400;-71
2022/01/11 01:46:34;;;;;;;3.90;2.27;;;7.10;51.70;;;;;;5072618;28;20024;-72
2022/01/11 01:49:01;;;;;;;3.53;2.23;;;7.10;52.20;;;;;;5072519;28;20033;-71
2022/01/11 01:51:28;;;;;;;2.77;2.07;;;7.00;51.80;;;;;;5072889;28;20037;-71
2022/01/11 01:53:55;;;;;;;6.07;2.33;;;7.00;52.20;;;;;;5076537;28;20024;-71
2022/01/11 01:56:22;;;;;;;4.10;2.40;;;6.90;52.30;;;;;;5076515;28;20039;-71
2022/01/11 01:58:48;;;;;;;2.87;2.00;;;6.80;53.20;;;;;;5074152;28;20036;-71
2022/01/11 02:01:14;;;;;;;3.83;2.20;;;6.80;52.90;;;;;;5072015;28;20110;-73
2022/01/11 02:03:42;;;;;;;2.83;1.97;;;6.80;53.50;;;;;;5073312;28;20032;-71
2022/01/11 02:06:10;;;;;;;2.83;1.70;;;6.80;52.90;;;;;;5075728;28;20024;-71
2022/01/11 02:08:37;;;;;;;4.13;1.70;;;6.70;52.70;;;;;;5075896;28;20032;-70
2022/01/11 02:11:03;;;;;;;3.60;1.70;;;6.80;51.90;;;;;;5075715;28;20061;-71
2022/01/11 02:13:29;;;;;;;2.07;1.60;;;6.90;50.00;;;;;;5075572;28;20377;-71
2022/01/11 02:15:57;;;;;;;2.20;1.13;;;6.90;49.90;;;;;;5076119;28;20024;-72
2022/01/11 02:18:25;;;;;;;4.50;1.30;;;7.00;50.10;;;;;;5075865;28;20028;-71
2022/01/11 02:20:52;;;;;;;2.37;1.50;;;7.00;49.10;;;;;;5075607;28;20036;-71
2022/01/11 02:23:20;;;;;;;2.10;1.40;;;7.00;49.20;;;;;;5076031;28;20024;-70
2022/01/11 02:25:46;;;;;;;1.97;1.47;;;7.00;49.50;;;;;;5075682;28;20024;-72
2022/01/11 02:28:15;;;;;;;1.97;1.20;;;7.00;49.70;;;;;;5075421;28;20392;-71
2022/01/11 02:30:41;;;;;;;3.00;1.40;;;7.00;49.10;;;;;;5075675;28;20028;-71
2022/01/11 02:33:15;;;;;;;2.67;1.50;;;7.00;48.80;;;;;;5075500;28;20024;-72
2022/01/11 02:35:50;;;;;;;1.73;1.17;;;7.00;48.40;;;;;;5075362;28;20557;-70
2022/01/11 02:38:15;;;;;;;1.70;1.20;;;7.00;49.00;;;;;;5075581;28;20017;-71
2022/01/11 02:40:42;;;;;;;4.00;1.30;;;7.00;48.40;;;;;;5075633;28;20488;-71
2022/01/11 02:43:08;;;;;;;8.00;1.07;;;7.00;47.30;;;;;;5075130;28;20059;-71
2022/01/11 02:45:33;;;;;;;3.17;0.97;;;7.10;46.60;;;;;;5074807;28;20381;-70
2022/01/11 02:47:59;;;;;;;0.80;0.70;;;7.10;46.40;;;;;;5075330;28;20028;-71
2022/01/11 02:50:25;;;;;;;1.83;1.13;;;7.20;45.80;;;;;;5075220;28;20028;-73
2022/01/11 02:52:51;;;;;;;1.30;0.80;;;7.20;46.00;;;;;;5074082;28;20052;-71
2022/01/11 02:55:18;;;;;;;2.43;1.00;;;7.30;44.30;;;;;;5075207;28;20024;-70
2022/01/11 02:57:44;;;;;;;2.53;1.07;;;7.30;44.30;;;;;;5075059;28;20036;-71
2022/01/11 03:00:14;;;;;;;1.00;0.70;;;7.40;44.60;;;;;;5075260;28;20032;-71
2022/01/11 03:02:40;;;;;;;2.63;1.20;;;7.40;44.40;;;;;;5075060;28;20368;-71
2022/01/11 03:05:07;;;;;;;2.10;1.27;;;7.40;45.60;;;;;;5073703;28;20040;-71
2022/01/11 03:07:32;;;;;;;1.77;1.30;;;7.40;46.60;;;;;;5075152;28;20036;-71
2022/01/11 03:10:04;;;;;;;1.40;1.00;;;7.40;46.50;;;;;;5074888;28;20397;-71
2022/01/11 03:12:30;;;;;;;2.07;1.10;;;7.40;46.70;;;;;;5075055;28;20110;-71
2022/01/11 03:14:56;;;;;;;2.57;1.30;;;7.40;46.60;;;;;;5074834;28;20021;-71
2022/01/11 03:17:22;;;;;;;1.57;1.20;;;7.40;46.60;;;;;;5075052;28;20092;-71
2022/01/11 03:19:48;;;;;;;1.33;0.90;;;7.40;46.20;;;;;;5074961;28;20028;-70
2022/01/11 03:22:14;;;;;;;3.93;1.00;;;7.30;45.20;;;;;;5074914;28;20047;-70
2022/01/11 03:24:40;;;;;;;2.70;1.20;;;7.40;45.00;;;;;;5074892;28;20111;-71
2022/01/11 03:27:07;;;;;;;4.00;0.73;;;7.40;44.30;;;;;;5074739;28;20036;-70
2022/01/11 03:29:37;;;;;;;1.70;1.00;;;7.40;44.40;;;;;;5074343;28;20473;-71
2022/01/11 03:32:04;;;;;;;2.03;1.00;;;7.50;44.10;;;;;;5074546;28;20028;-71
2022/01/11 03:34:30;;;;;;;1.13;0.83;;;7.50;43.90;;;;;;5074467;28;20397;-70
2022/01/11 03:36:57;;;;;;;1.60;1.00;;;7.50;43.50;;;;;;5074249;28;20095;-71
2022/01/11 03:39:24;;;;;;;3.03;1.00;;;7.50;43.30;;;;;;5074520;28;20525;-71
2022/01/11 03:41:50;;;;;;;1.53;1.00;;;7.50;44.10;;;;;;5074407;28;20214;-71
2022/01/11 03:44:15;;;;;;;5.07;1.60;;;7.50;43.90;;;;;;5074479;28;20140;-72
2022/01/11 03:46:41;;;;;;;1.80;1.07;;;7.50;43.60;;;;;;5074504;28;20025;-71
2022/01/11 03:49:07;;;;;;;2.20;1.10;;;7.50;44.00;;;;;;5074059;28;20492;-71
2022/01/11 03:51:36;;;;;;;1.80;1.10;;;7.50;44.30;;;;;;5074203;28;20024;-71
2022/01/11 03:54:11;;;;;;;1.53;0.97;;;7.50;44.10;;;;;;5074236;28;20035;-70
2022/01/11 03:56:37;;;;;;;1.53;1.03;;;7.50;44.60;;;;;;5074292;28;20019;-70
2022/01/11 03:59:06;;;;;;;2.00;1.23;;;7.50;44.90;;;;;;5074303;28;20028;-71
2022/01/11 04:01:33;;;;;;;2.70;1.07;;;7.50;44.20;;;;;;5073618;28;20055;-70
2022/01/11 04:03:59;;;;;;;1.90;1.33;;;7.50;44.10;;;;;;5073806;28;20056;-71
2022/01/11 04:06:26;;;;;;;2.30;1.40;;;7.40;44.10;;;;;;5073860;28;20044;-70
2022/01/11 04:08:52;;;;;;;2.20;1.47;;;7.50;45.10;;;;;;5073864;28;20027;-70
2022/01/11 04:11:17;;;;;;;2.33;1.20;;;7.50;44.00;;;;;;5073703;28;20074;-71
2022/01/11 04:13:43;;;;;;;1.93;1.30;;;7.40;43.90;;;;;;5073930;28;20028;-71
2022/01/11 04:16:09;;;;;;;1.93;1.10;;;7.40;44.50;;;;;;5073357;28;20028;-70
2022/01/11 04:18:35;;;;;;;2.20;1.50;;;7.40;44.80;;;;;;5073704;28;20029;-71
2022/01/11 04:21:01;;;;;;;1.93;1.30;;;7.40;45.20;;;;;;5073620;28;20044;-71
2022/01/11 04:23:27;;;;;;;1.37;1.17;;;7.30;45.80;;;;;;5073522;28;20047;-70
2022/01/11 04:25:53;;;;;;;1.73;1.30;;;7.40;45.80;;;;;;5073532;28;20099;-70
2022/01/11 04:28:19;;;;;;;1.80;1.20;;;7.30;45.80;;;;;;5073501;28;20016;-70
2022/01/11 04:30:44;;;;;;;2.23;1.50;;;7.30;45.20;;;;;;5072198;28;20033;-70
2022/01/11 04:33:10;;;;;;;2.10;1.40;;;7.30;45.70;;;;;;5073815;28;20029;-70
2022/01/11 04:35:37;;;;;;;2.20;1.30;;;7.30;45.60;;;;;;5073370;28;20051;-70
2022/01/11 04:38:03;;;;;;;1.57;1.10;;;7.30;45.70;;;;;;5073083;28;20384;-71
2022/01/11 04:40:28;;;;;;;2.33;1.27;;;7.30;45.60;;;;;;5073262;28;20023;-70
2022/01/11 04:42:54;;;;;;;2.03;1.10;;;7.30;45.40;;;;;;5073560;28;20052;-71
2022/01/11 04:45:20;;;;;;;2.50;1.57;;;7.30;45.90;;;;;;5073432;28;20025;-71
2022/01/11 04:47:47;;;;;;;1.90;1.30;;;7.30;45.10;;;;;;5073274;28;20500;-70
2022/01/11 04:50:13;;;;;;;1.60;1.17;;;7.30;45.50;;;;;;5073194;28;20044;-71
2022/01/11 04:52:39;;;;;;;2.70;1.33;;;7.20;45.50;;;;;;5073332;28;20025;-71
2022/01/11 04:55:06;;;;;;;2.57;1.30;;;7.30;45.60;;;;;;5073261;28;20024;-71
2022/01/11 04:57:32;;;;;;;1.80;1.33;;;7.20;45.80;;;;;;5073288;28;20021;-71
2022/01/11 04:59:57;;;;;;;2.67;1.47;;;7.20;45.70;;;;;;5073223;28;20093;-70
2022/01/11 05:02:25;;;;;;;2.17;1.27;;;7.20;45.10;;;;;;5071876;28;20031;-71
2022/01/11 05:04:51;;;;;;;2.03;1.27;;;7.20;45.10;;;;;;5073062;28;20031;-71
2022/01/11 05:07:16;;;;;;;4.03;1.30;;;7.20;45.30;;;;;;5072921;28;20025;-70
2022/01/11 05:09:42;;;;;;;2.47;1.33;;;7.20;45.30;;;;;;5073205;28;20485;-70
2022/01/11 05:12:09;;;;;;;1.40;1.10;;;7.20;44.70;;;;;;5072954;28;20465;-70
2022/01/11 05:14:34;;;;;;;2.07;1.00;;;7.20;45.00;;;;;;5073113;28;20056;-71
2022/01/11 05:17:00;;;;;;;1.93;1.30;;;7.20;45.30;;;;;;5073324;28;20440;-72
2022/01/11 05:19:25;;;;;;;1.83;1.13;;;7.20;45.30;;;;;;5071795;28;20028;-70
2022/01/11 05:21:51;;;;;;;1.77;1.00;;;7.20;45.40;;;;;;5072881;28;20048;-71
2022/01/11 05:24:17;;;;;;;1.47;0.97;;;7.20;44.90;;;;;;5072714;28;20028;-71
2022/01/11 05:26:43;;;;;;;1.47;0.90;;;7.20;45.50;;;;;;5073702;28;20024;-71
2022/01/11 05:29:08;;;;;;;2.57;0.93;;;7.10;45.30;;;;;;5077150;28;20040;-71
2022/01/11 05:31:34;;;;;;;1.87;1.03;;;7.10;45.30;;;;;;5077041;28;20020;-72
2022/01/11 05:34:01;;;;;;;2.00;1.00;;;7.10;45.50;;;;;;5076824;28;20081;-71
2022/01/11 05:36:26;;;;;;;1.87;1.07;;;7.10;45.30;;;;;;5077113;28;20025;-70
2022/01/11 05:38:52;;;;;;;1.47;1.00;;;7.10;45.00;;;;;;5077065;28;20097;-71
2022/01/11 05:41:18;;;;;;;1.53;0.83;;;7.10;45.30;;;;;;5076838;28;20070;-71
2022/01/11 05:43:43;;;;;;;1.33;0.83;;;7.10;43.40;;;;;;5076714;28;20029;-70
2022/01/11 05:46:09;;;;;;;3.53;1.00;;;7.10;43.50;;;;;;5076996;28;20086;-71
2022/01/11 05:48:35;;;;;;;1.10;0.73;;;7.20;43.90;;;;;;5076760;28;20082;-71
2022/01/11 05:51:01;;;;;;;1.07;0.80;;;7.10;44.20;;;;;;5076493;28;20039;-71
2022/01/11 05:53:26;;;;;;;2.30;1.30;;;7.20;43.40;;;;;;5076649;28;20039;-71
2022/01/11 05:55:52;;;;;;;1.67;1.00;;;7.20;44.00;;;;;;5076313;28;20039;-71
2022/01/11 05:58:18;;;;;;;2.27;1.30;;;7.20;43.80;;;;;;5076696;28;20032;-72
2022/01/11 06:00:43;;;;;;;3.87;1.20;;;7.20;43.80;;;;;;5076490;28;20020;-70
2022/01/11 06:03:09;;;;;;;4.00;1.43;;;7.20;44.40;;;;;;5076311;28;20056;-70
2022/01/11 06:05:38;;;;;;;2.90;1.40;;;7.10;45.00;;;;;;5076258;28;20032;-70
2022/01/11 06:08:06;;;;;;;4.17;1.23;;;7.10;45.10;;;;;;5076594;28;20396;-70
2022/01/11 06:10:32;;;;;;;1.90;1.43;;;7.00;45.30;;;;;;5076044;28;20381;-70
2022/01/11 06:12:57;;;;;;;2.37;1.37;;;7.00;45.80;;;;;;5076320;28;20040;-71
2022/01/11 06:15:23;;;;;;;2.60;1.70;;;6.90;46.40;;;;;;5075994;28;20438;-71
2022/01/11 06:17:50;;;;;;;4.13;1.53;;;6.90;46.80;;;;;;5075811;28;20388;-70
2022/01/11 06:20:16;;;;;;;2.37;1.47;;;6.80;46.40;;;;;;5074672;28;20047;-70
2022/01/11 06:22:42;;;;;;;2.53;1.33;;;6.80;46.80;;;;;;5074612;28;20049;-71
2022/01/11 06:25:08;;;;;;;1.93;1.20;;;6.70;46.80;;;;;;5074858;28;20029;-71
2022/01/11 06:27:37;;;;;;;2.23;1.40;;;6.60;46.90;;;;;;5074784;28;20397;-71
2022/01/11 06:30:03;;;;;;;1.47;1.00;;;6.60;46.20;;;;;;5075031;28;20041;-70
2022/01/11 06:32:29;;;;;;;2.20;1.07;;;6.70;44.40;;;;;;5074654;28;20489;-71
2022/01/11 06:34:55;;;;;;;2.60;1.33;;;6.70;44.60;;;;;;5074554;28;20028;-71
2022/01/11 06:37:21;;;;;;;2.67;1.33;;;6.70;44.40;;;;;;5074134;28;20013;-72
2022/01/11 06:39:47;;;;;;;3.50;1.30;;;6.80;44.30;;;;;;5074771;28;20484;-70
2022/01/11 06:42:13;;;;;;;3.53;1.03;;;6.80;44.20;;;;;;5074634;28;20027;-72
2022/01/11 06:44:39;;;;;;;3.97;1.03;;;6.80;44.00;;;;;;5074361;28;20035;-71
2022/01/11 06:47:05;;;;;;;1.70;1.30;;;6.80;43.90;;;;;;5074244;28;20377;-71
2022/01/11 06:49:31;;;;;;;1.60;1.20;;;6.80;43.40;;;;;;5074536;28;20036;-71
2022/01/11 06:51:56;;;;;;;7.13;1.50;;;6.80;44.30;;;;;;5074223;28;20025;-70
2022/01/11 06:54:22;;;;;;;9.90;3.23;;;6.80;43.90;;;;;;5074353;28;20107;-71
2022/01/11 06:56:48;;;;;;;2.63;1.40;;;6.90;43.80;;;;;;5074156;28;20021;-70
2022/01/11 06:59:13;;;;;;;10.00;6.13;;;6.90;44.30;;;;;;5074368;28;20241;-70
2022/01/11 07:01:39;;;;;;;3.20;2.30;;;6.90;44.90;;;;;;5074332;28;20028;-70
2022/01/11 07:04:05;;;;;;;2.47;1.50;;;6.80;43.90;;;;;;5089618;28;20423;-69
2022/01/11 07:06:30;;;;;;;4.43;1.20;;;6.80;44.20;;;;;;5074233;28;20028;-70
2022/01/11 07:08:56;;;;;;;1.97;1.17;;;6.80;44.30;;;;;;5074274;28;20036;-71
2022/01/11 07:11:23;;;;;;;1.90;1.20;;;6.90;43.60;;;;;;5073903;28;20023;-70
2022/01/11 07:13:49;;;;;;;2.43;1.37;;;6.90;43.20;;;;;;5073847;28;20030;-69
2022/01/11 07:16:14;;;;;;;2.03;1.10;;;6.90;43.90;;;;;;5071504;28;20021;-71
2022/01/11 07:18:40;;;;;;;2.47;1.23;;;6.90;43.70;;;;;;5070940;28;20031;-71
2022/01/11 07:21:06;;;;;;;2.33;1.40;;;6.90;42.50;;;;;;5030791;28;1163005;-70
2022/01/11 07:23:32;;;;;;;5.30;1.40;;;6.90;42.70;;;;;;5074488;28;20469;-70
2022/01/11 07:25:57;;;;;;;2.10;1.23;;;7.00;42.60;;;;;;5074550;28;20021;-69
2022/01/11 07:28:23;;;;;;;2.10;1.20;;;7.00;43.00;;;;;;5074590;28;20477;-69
2022/01/11 07:30:50;;;;;;;1.43;1.00;;;7.00;42.70;;;;;;5074313;28;20049;-69
2022/01/11 07:33:16;;;;;;;2.07;1.10;;;7.10;42.80;;;;;;5074438;28;20016;-69
2022/01/11 07:35:42;;;;;;;1.70;1.10;;;7.10;43.10;;;;;;5074271;28;20024;-70
2022/01/11 07:38:08;;;;;;;2.20;1.20;;;7.10;42.80;;;;;;5073987;28;20070;-69
2022/01/11 07:40:33;;;;;;;2.13;1.17;;;7.20;42.40;;;;;;5074298;28;20389;-69
2022/01/11 07:42:59;;;;;;;2.37;1.10;;;7.20;42.30;;;;;;5074173;28;20535;-69
2022/01/11 07:45:25;;;;;;;4.20;1.20;;;7.20;42.70;;;;;;5073686;28;20469;-69
2022/01/11 07:47:50;;;;;;;2.37;1.17;;;7.20;42.80;;;;;;5074004;28;20487;-69
2022/01/11 07:50:16;;;;;;;20.87;1.90;;;7.30;41.50;;;;;;5073359;28;20510;-69
2022/01/11 07:52:42;;;;;;;2.43;1.40;;;7.30;41.50;;;;;;5073951;28;20436;-69
2022/01/11 07:55:08;;;;;;;4.10;1.30;;;7.40;40.80;;;;;;5073746;28;20031;-70
2022/01/11 07:57:33;;;;;;;1.50;0.90;;;7.40;41.50;;;;;;5073391;28;20062;-69
2022/01/11 07:59:59;;;;;;;3.00;1.43;;;7.50;41.30;;;;;;5073629;28;20067;-70
2022/01/11 08:02:25;;;;;;;1.97;1.30;;;7.50;40.90;;;;;;5073440;28;20023;-70
2022/01/11 08:04:54;;;;;;;3.13;1.53;;;7.60;41.00;;;;;;5070908;28;20094;-70
2022/01/11 08:07:21;;;;;;;6.90;1.67;;;7.60;41.40;;;;;;5071137;28;20816;-69
2022/01/11 08:09:46;;;;;;;3.57;1.63;;;7.60;42.00;;;;;;5072385;28;20032;-70
2022/01/11 08:12:12;;;;;;;2.70;1.60;;;7.70;42.00;;;;;;5073994;28;20024;-70
2022/01/11 08:14:38;;;;;;;3.63;1.90;;;7.80;41.70;;;;;;5073919;28;20027;-70
2022/01/11 08:17:04;;;;;;;3.30;1.90;;;7.80;41.90;;;;;;5074232;28;20028;-72
2022/01/11 08:19:30;;;;;;;2.10;1.30;;;7.90;42.30;;;;;;5073927;28;20024;-72
2022/01/11 08:21:56;;;;;;;2.73;1.30;;;7.90;41.70;;;;;;5073723;28;20055;-69
2022/01/11 08:24:23;;;;;;;1.80;1.40;;;7.90;41.80;;;;;;5073986;28;20414;-70
2022/01/11 08:26:49;;;;;;;4.80;1.70;;;8.00;41.30;;;;;;5072513;28;20068;-70
2022/01/11 08:29:18;;;;;;;6.60;1.87;;;8.00;41.90;;;;;;5072949;28;20025;-71
2022/01/11 08:31:47;;;;;;;2.97;1.60;;;8.00;41.30;;;;;;5073502;28;20020;-70
2022/01/11 08:34:14;;;;;;;2.13;1.50;;;8.10;42.00;;;;;;5073468;28;20389;-72
2022/01/11 08:36:45;;;;;;;4.03;1.70;;;8.10;41.70;;;;;;5073436;28;20111;-70
2022/01/11 08:39:11;;;;;;;3.27;1.97;;;8.10;41.10;;;;;;5073728;28;20025;-69
2022/01/11 08:41:38;;;;;;;2.63;1.57;;;8.10;41.60;;;;;;5073432;28;20025;-69
2022/01/11 08:44:05;;;;;;;3.00;1.90;;;8.20;40.60;;;;;;5073374;28;20025;-70
2022/01/11 08:46:30;;;;;;;2.63;1.60;;;8.20;41.00;;;;;;5073372;28;20056;-72
2022/01/11 08:48:56;;;;;;;5.20;1.37;;;8.20;41.70;;;;;;5073292;28;20067;-73
2022/01/11 08:51:23;;;;;;;2.90;1.43;;;8.20;41.60;;;;;;5073436;28;20056;-71
2022/01/11 08:53:49;;;;;;;2.57;1.73;;;8.30;41.60;;;;;;5073376;28;20440;-71
2022/01/11 08:56:17;;;;;;;3.17;1.70;;;8.30;41.00;;;;;;5073240;28;20052;-73
2022/01/11 08:58:44;;;;;;;2.63;1.50;;;8.30;40.10;;;;;;5073185;28;20035;-70
2022/01/11 09:01:09;;;;;;;2.63;1.67;;;8.30;40.90;;;;;;5073442;28;20021;-71
2022/01/11 09:03:35;;;;;;;3.17;2.23;;;8.30;40.80;;;;;;5073134;28;20032;-72
2022/01/11 09:06:01;;;;;;;4.03;2.00;;;8.40;40.00;;;;;;5073179;28;20021;-71
2022/01/11 09:08:26;;;;;;;3.17;1.90;;;8.40;40.00;;;;;;5073101;28;20410;-71
2022/01/11 09:10:52;;;;;;;2.57;1.50;;;8.40;40.30;;;;;;5073169;28;20028;-71
2022/01/11 09:13:19;;;;;;;2.40;1.50;;;8.40;40.90;;;;;;5073380;28;20025;-72
2022/01/11 09:15:45;;;;;;;2.17;1.60;;;8.40;40.40;;;;;;5072986;28;20162;-71
2022/01/11 09:18:12;;;;;;;3.23;1.80;;;8.50;39.90;;;;;;5072936;28;20103;-72
2022/01/11 09:20:38;;;;;;;4.30;1.60;;;8.50;39.60;;;;;;5073027;28;20051;-72
2022/01/11 09:23:04;;;;;;;7.00;1.80;;;8.60;39.80;;;;;;5073210;28;20032;-72
2022/01/11 09:25:30;;;;;;;4.40;2.67;;;8.60;39.80;;;;;;5072757;28;20074;-71
2022/01/11 09:27:55;;;;;;;2.93;2.17;;;8.60;39.80;;;;;;5073020;28;20128;-72
2022/01/11 09:30:21;;;;;;;3.40;2.37;;;8.60;39.50;;;;;;5072703;28;20032;-72
2022/01/11 09:32:47;;;;;;;6.37;2.30;;;8.70;40.00;;;;;;5073404;28;20039;-72
2022/01/11 09:35:14;;;;;;;4.00;2.70;;;8.70;40.50;;;;;;5072905;28;20153;-72
2022/01/11 09:37:40;;;;;;;3.73;2.57;;;8.70;41.10;;;;;;5072834;28;20028;-70
2022/01/11 09:40:08;;;;;;;5.00;2.60;;;8.80;41.20;;;;;;5072714;28;20020;-71
2022/01/11 09:42:35;;;;;;;4.90;2.80;;;8.80;41.90;;;;;;5073110;28;20025;-70
2022/01/11 09:45:03;;;;;;;4.97;2.90;;;8.80;41.60;;;;;;5072627;28;20058;-73
2022/01/11 09:47:30;;;;;;;5.73;3.07;;;8.90;41.90;;;;;;5072756;28;20027;-72
2022/01/11 09:49:56;;;;;;;5.20;2.87;;;8.90;41.70;;;;;;5072874;28;20439;-72
2022/01/11 09:52:28;;;;;;;4.77;1.80;;;8.90;41.80;;;;;;5072727;28;20107;-72
2022/01/11 09:54:54;;;;;;;7.10;2.00;;;9.00;39.40;;;;;;5072822;28;20033;-72
2022/01/11 09:57:20;;;;;;;4.10;1.60;;;9.00;38.90;;;;;;5072772;28;20020;-71
2022/01/11 09:59:46;;;;;;;7.03;2.27;;;9.00;39.00;;;;;;5072738;28;20029;-72
2022/01/11 10:02:13;;;;;;;10.73;2.57;;;9.10;39.30;;;;;;5072492;28;20487;-72
2022/01/11 10:04:41;;;;;;;40.33;2.87;;;9.10;38.40;;;;;;5072650;28;20037;-72
2022/01/11 10:07:08;;;;;;;7.17;2.20;;;9.10;38.40;;;;;;5072444;28;20028;-73
2022/01/11 10:09:48;;;;;;;8.40;2.67;;;9.20;37.20;;;;;;5072465;28;20032;-73
2022/01/11 10:12:14;;;;;;;3.67;2.20;;;9.20;36.90;;;;;;5072551;28;20029;-72
2022/01/11 10:14:50;;;;;;;3.10;1.70;;;9.30;38.00;;;;;;5075998;28;20025;-72
2022/01/11 10:17:27;;;;;;;2.67;1.73;;;9.30;37.40;;;;;;5076204;28;20048;-72
2022/01/11 10:20:11;;;;;;;4.07;2.17;;;9.40;37.90;;;;;;5076413;28;20032;-72
2022/01/11 10:23:00;;;;;;;4.13;1.87;;;9.40;38.10;;;;;;5075992;28;20135;-72
2022/01/11 10:25:31;;;;;;;3.87;2.17;;;9.50;37.80;;;;;;5075727;28;20016;-70
2022/01/11 10:28:03;;;;;;;8.40;2.20;;;9.50;37.80;;;;;;5075917;28;20085;-69
2022/01/11 10:30:30;;;;;;;9.90;2.10;;;9.50;37.60;;;;;;5074718;28;20046;-69
2022/01/11 10:32:58;;;;;;;6.70;2.27;;;9.50;37.40;;;;;;5075597;28;20047;-69
2022/01/11 10:35:41;;;;;;;4.40;2.87;;;9.60;36.70;;;;;;5075211;28;20028;-71
2022/01/11 10:38:08;;;;;;;5.47;3.47;;;9.60;37.30;;;;;;5072852;28;20380;-69
2022/01/11 10:40:38;;;;;;;5.67;3.10;;;9.70;39.20;;;;;;5072174;28;20020;-68
2022/01/11 10:43:11;;;;;;;4.47;2.83;;;9.70;39.30;;;;;;5072897;28;20037;-69
2022/01/11 10:45:40;;;;;;;5.67;2.03;;;9.70;38.80;;;;;;5073494;28;20035;-68
2022/01/11 10:48:13;;;;;;;4.07;2.47;;;9.80;38.20;;;;;;5075394;28;20028;-68
2022/01/11 10:50:43;;;;;;;4.68;2.97;;;9.80;37.00;;;;;;5075403;28;20040;-71
2022/01/11 10:53:32;;;;;;;6.53;3.20;;;9.90;38.10;;;;;;5074793;28;20275;-69
2022/01/11 10:56:00;;;;;;;3.53;2.50;;;10.00;39.30;;;;;;5074752;28;20025;-73
2022/01/11 10:58:33;;;;;;;5.17;3.00;;;10.00;37.10;;;;;;5075550;28;20454;-70
2022/01/11 11:00:59;;;;;;;5.93;3.45;;;10.10;38.00;;;;;;5075329;28;20142;-69
2022/01/11 11:03:29;;;;;;;4.60;2.93;;;10.20;38.80;;;;;;5075177;28;20048;-72
2022/01/11 11:05:58;;;;;;;6.37;2.70;;;10.20;39.90;;;;;;5074068;28;20032;-71
2022/01/11 11:08:31;;;;;;;3.93;2.77;;;10.30;38.90;;;;;;5075116;28;20499;-71
2022/01/11 11:10:56;;;;;;;3.67;2.40;;;10.30;37.20;;;;;;5075382;28;20045;-72
2022/01/11 11:13:36;;;;;;;3.27;2.33;;;10.40;36.00;;;;;;5075334;28;20082;-70
2022/01/11 11:16:10;;;;;;;4.13;2.20;;;10.40;36.50;;;;;;5074814;28;20033;-72
2022/01/11 11:18:41;;;;;;;3.90;2.50;;;10.50;36.00;;;;;;5074954;28;20029;-72
2022/01/11 11:21:18;;;;;;;6.83;2.70;;;10.50;37.10;;;;;;5074883;28;20116;-72
2022/01/11 11:23:45;;;;;;;8.07;3.47;;;10.60;37.00;;;;;;5074135;28;20123;-71
2022/01/11 11:26:11;;;;;;;9.30;4.30;;;10.60;37.40;;;;;;5073778;28;20021;-72
2022/01/11 11:28:38;;;;;;;7.03;2.77;;;10.60;37.10;;;;;;5074594;28;20025;-72
2022/01/11 11:31:05;;;;;;;5.70;3.50;;;10.60;37.10;;;;;;5074866;28;20425;-70
2022/01/11 11:33:30;;;;;;;5.37;3.10;;;10.60;38.10;;;;;;5074499;28;20474;-72
2022/01/11 11:35:57;;;;;;;4.93;2.97;;;10.60;38.20;;;;;;5074617;28;20070;-72
2022/01/11 11:38:30;;;;;;;5.10;2.70;;;10.70;37.40;;;;;;5074466;28;20062;-71
2022/01/11 11:40:58;;;;;;;5.17;2.97;;;10.70;37.50;;;;;;5074363;28;20020;-72
2022/01/11 11:43:25;;;;;;;7.40;4.10;;;10.70;37.20;;;;;;5074490;28;20067;-73
2022/01/11 11:45:51;;;;;;;4.10;2.90;;;10.70;38.10;;;;;;5074396;28;20021;-72
2022/01/11 11:48:19;;;;;;;7.40;3.37;;;10.70;36.20;;;;;;5074268;28;20024;-72
2022/01/11 11:50:55;;;;;;;8.27;2.77;;;10.70;35.70;;;;;;5074457;28;20389;-72
2022/01/11 11:53:34;;;;;;;4.20;2.83;;;10.70;35.50;;;;;;5074107;28;20128;-72
2022/01/11 11:56:12;;;;;;;4.63;2.73;;;10.70;35.30;;;;;;5074136;28;20559;-72
2022/01/11 11:58:43;;;;;;;4.67;2.87;;;10.70;35.00;;;;;;5074061;28;20039;-72
2022/01/11 12:01:47;;;;;;;17.53;3.07;;;10.70;35.70;;;;;;5074308;28;20036;-72
2022/01/11 12:04:37;;;;;;;5.60;2.95;;;10.70;35.10;;;;;;5072866;28;20355;-73
2022/01/11 12:07:41;;;;;;;7.93;3.20;;;10.70;35.40;;;;;;5073708;28;20025;-72
2022/01/11 12:10:14;;;;;;;5.53;2.50;;;10.60;35.40;;;;;;5042383;28;20037;-71
2022/01/11 12:12:49;;;;;;;;;;;10.70;35.40;;;;;;5074304;28;20025;-72
2022/01/11 12:15:35;;;;;;;4.53;2.23;;;10.70;34.60;;;;;;5073957;28;19911;-72
2022/01/11 12:18:04;;;;;;;3.77;2.40;;;10.60;35.00;;;;;;5073691;28;20052;-72
2022/01/11 12:20:39;;;;;;;3.50;2.50;;;10.70;35.10;;;;;;5073504;28;20031;-72
2022/01/11 12:23:05;;;;;;;14.83;2.50;;;10.70;34.30;;;;;;5073814;28;20036;-72
2022/01/11 12:25:37;;;;;;;5.73;2.73;;;10.70;34.70;;;;;;5073731;28;20111;-72
2022/01/11 12:28:05;;;;;;;8.20;5.32;;;10.70;35.10;;;;;;5073638;28;20037;-71
2022/01/11 12:30:32;;;;;;;8.27;5.27;;;10.70;36.80;;;;;;5073398;28;20085;-72
2022/01/11 12:33:21;;;;;;;9.07;5.90;;;10.70;38.50;;;;;;5073485;28;20020;-71
2022/01/11 12:36:13;;;;;;;10.50;6.40;;;10.60;38.40;;;;;;5073827;28;20051;-70
2022/01/11 12:39:03;;;;;;;9.87;5.80;;;10.60;38.30;;;;;;5071671;28;20108;-70
2022/01/11 12:41:37;;;;;;;14.00;6.13;;;10.60;38.10;;;;;;5073546;28;20372;-71
2022/01/11 12:47:09;;;;;;;11.73;7.10;;;10.50;38.00;;;;;;5073432;28;20024;-72
2022/01/11 12:49:43;;;;;;;13.27;8.03;;;10.40;38.40;;;;;;5073089;28;20103;-68
2022/01/11 12:52:12;;;;;;;11.73;7.33;;;10.30;39.00;;;;;;5073211;28;20029;-71
2022/01/11 12:54:39;;;;;;;11.37;6.53;;;10.20;38.70;;;;;;5073297;28;20016;-71
2022/01/11 12:57:17;;;;;;;9.13;6.47;;;10.20;38.70;;;;;;5073465;28;20028;-72
2022/01/11 12:59:46;;;;;;;11.27;6.97;;;10.10;38.90;;;;;;5072931;28;20040;-71
2022/01/11 13:02:18;;;;;;;10.47;6.87;;;10.10;39.50;;;;;;5073211;28;20358;-72
2022/01/11 13:04:48;;;;;;;12.27;7.57;;;10.10;39.90;;;;;;5072952;28;20032;-71
2022/01/11 13:07:17;;;;;;;10.00;6.70;;;10.10;40.00;;;;;;5073336;28;20024;-71